Time;durP1;ratioP1;P1;durP2;ratioP2;P2;SDS_P1;SDS_P2;PMS_P1;PMS_P2;Temp;Humidity;BMP_temperature;BMP_pressure;BME280_temperature;BME280_humidity;BME280_pressure;Samples;Min_cycle;Max_cycle;Signal;HPM_P1;HPM_P2
2022/09/21 00:00:37;;;;;;;5.32;3.72;;;;;;;11.75;96.20;100658.25;5101705;28;20077;-64
2022/09/21 00:03:03;;;;;;;3.45;3.15;;;;;;;11.75;95.97;100664.47;5102199;28;20027;-64
2022/09/21 00:05:29;;;;;;;3.92;2.78;;;;;;;11.66;95.84;100667.97;5104339;27;20138;-66
2022/09/21 00:07:58;;;;;;;4.10;3.50;;;;;;;11.64;96.00;100661.84;5101017;28;20035;-67
2022/09/21 00:10:23;;;;;;;4.00;3.58;;;;;;;11.63;96.88;100667.38;5101575;28;20024;-66
2022/09/21 00:12:49;;;;;;;4.88;3.85;;;;;;;11.65;96.41;100676.16;5101945;28;20114;-67
2022/09/21 00:15:16;;;;;;;5.25;3.30;;;;;;;11.58;97.02;100668.59;5100478;28;20048;-65
2022/09/21 00:17:42;;;;;;;5.13;4.00;;;;;;;11.44;98.00;100660.00;5102058;28;20088;-65
2022/09/21 00:20:08;;;;;;;5.03;3.83;;;;;;;11.43;98.25;100663.69;5101771;28;20072;-65
2022/09/21 00:22:34;;;;;;;5.65;4.05;;;;;;;11.34;98.23;100657.28;5100634;28;20027;-65
2022/09/21 00:25:02;;;;;;;4.18;3.78;;;;;;;11.32;98.31;100659.22;5102184;28;20038;-64
2022/09/21 00:27:30;;;;;;;5.15;4.05;;;;;;;11.28;98.79;100657.81;5101703;28;20023;-64
2022/09/21 00:29:57;;;;;;;6.10;3.53;;;;;;;11.28;98.40;100662.31;5102023;28;20043;-63
2022/09/21 00:32:26;;;;;;;4.45;3.22;;;;;;;11.19;98.89;100663.13;5102421;28;20028;-63
2022/09/21 00:34:52;;;;;;;4.63;3.78;;;;;;;11.17;98.78;100670.44;5100521;28;20244;-64
2022/09/21 00:37:20;;;;;;;3.80;3.30;;;;;;;11.08;98.68;100657.78;5104032;27;20028;-63
2022/09/21 00:39:46;;;;;;;3.75;3.28;;;;;;;11.11;99.20;100673.63;5106288;28;20023;-63
2022/09/21 00:42:30;;;;;;;4.55;3.58;;;;;;;11.04;98.58;100670.63;5105970;28;20046;-64
2022/09/21 00:44:55;;;;;;;6.50;3.65;;;;;;;11.04;98.68;100667.94;5106810;27;20038;-65
2022/09/21 00:47:26;;;;;;;5.13;3.65;;;;;;;11.04;98.43;100665.25;5106519;27;20110;-64
2022/09/21 00:49:55;;;;;;;4.38;3.20;;;;;;;11.03;98.40;100668.91;5105767;28;21007;-64
2022/09/21 00:52:24;;;;;;;5.10;3.83;;;;;;;11.03;98.50;100665.38;5105043;27;20024;-65
2022/09/21 00:54:56;;;;;;;6.32;3.65;;;;;;;11.02;98.62;100675.25;5105006;28;20034;-64
2022/09/21 00:57:24;;;;;;;5.07;3.63;;;;;;;10.98;98.38;100651.50;5104168;28;20383;-65
2022/09/21 00:59:54;;;;;;;4.53;3.42;;;;;;;11.04;98.31;100684.06;5105345;28;20389;-64
2022/09/21 01:02:20;;;;;;;4.15;3.70;;;;;;;11.01;98.39;100673.56;5105006;28;20019;-64
2022/09/21 01:04:47;;;;;;;6.05;4.40;;;;;;;11.01;98.77;100678.94;5103874;28;20471;-64
2022/09/21 01:07:20;;;;;;;4.90;3.90;;;;;;;11.04;99.04;100677.81;5107939;27;20965;-64
2022/09/21 01:09:52;;;;;;;4.97;4.10;;;;;;;11.07;98.62;100680.25;5104709;28;20020;-65
2022/09/21 01:12:27;;;;;;;6.82;3.90;;;;;;;11.08;97.79;100680.13;5102730;28;20055;-65
2022/09/21 01:15:09;;;;;;;14.02;5.07;;;;;;;11.05;97.53;100669.63;5105457;28;20083;-63
2022/09/21 01:18:09;;;;;;;9.23;4.80;;;;;;;11.11;97.46;100674.50;5104142;28;20035;-64
2022/09/21 01:20:54;;;;;;;6.55;4.50;;;;;;;11.15;97.06;100678.63;5105835;27;20605;-64
2022/09/21 01:23:32;;;;;;;6.15;4.00;;;;;;;11.20;96.45;100681.78;5105639;28;20699;-64
2022/09/21 01:26:11;;;;;;;4.65;3.95;;;;;;;11.19;96.15;100680.06;5105696;28;20623;-64
2022/09/21 01:29:04;;;;;;;7.95;3.90;;;;;;;11.18;95.81;100680.19;5106092;28;20356;-64
2022/09/21 01:31:45;;;;;;;4.40;3.17;;;;;;;11.19;94.89;100684.59;5105183;28;20489;-65
2022/09/21 01:34:20;;;;;;;7.32;3.92;;;;;;;11.11;95.78;100679.00;5107903;27;20493;-64
2022/09/21 01:36:48;;;;;;;5.63;3.65;;;;;;;11.10;96.03;100686.19;5108136;27;20126;-65
2022/09/21 01:39:17;;;;;;;4.35;3.63;;;;;;;11.09;96.01;100684.50;5105246;27;20038;-65
2022/09/21 01:41:45;;;;;;;6.55;4.30;;;;;;;11.03;96.54;100670.75;5105709;28;20070;-64
2022/09/21 01:44:19;;;;;;;5.68;3.70;;;;;;;11.06;95.88;100675.88;5105494;28;20019;-64
2022/09/21 01:46:45;;;;;;;5.43;3.78;;;;;;;11.04;96.51;100676.00;5106384;27;20027;-65
2022/09/21 01:49:22;;;;;;;4.40;3.60;;;;;;;11.05;96.35;100679.50;5103532;28;20020;-65
2022/09/21 01:51:54;;;;;;;5.30;3.88;;;;;;;11.00;97.66;100665.66;5104205;28;20391;-65
2022/09/21 01:54:44;;;;;;;5.55;3.72;;;;;;;11.04;98.43;100675.13;5103899;27;20042;-65
2022/09/21 01:57:33;;;;;;;5.45;3.80;;;;;;;11.02;98.16;100667.22;5103890;28;20057;-65
2022/09/21 02:00:00;;;;;;;4.93;3.92;;;;;;;11.03;98.90;100686.88;5104109;28;20039;-65
2022/09/21 02:02:30;;;;;;;5.20;4.10;;;;;;;11.01;99.20;100680.75;5103965;28;20368;-65
2022/09/21 02:04:59;;;;;;;4.90;3.72;;;;;;;11.02;99.47;100685.13;5104531;28;20058;-65
2022/09/21 02:07:25;;;;;;;7.28;3.78;;;;;;;11.00;99.79;100682.59;5103720;28;20111;-65
2022/09/21 02:09:53;;;;;;;5.00;3.83;;;;;;;11.03;99.30;100685.00;5103741;28;20027;-65
2022/09/21 02:12:19;;;;;;;5.57;3.92;;;;;;;10.97;100.00;100688.19;5104344;28;20031;-65
2022/09/21 02:14:45;;;;;;;6.28;4.38;;;;;;;10.99;100.00;100696.13;5104240;28;20080;-65
2022/09/21 02:17:59;;;;;;;4.22;3.83;;;;;;;11.00;100.00;100687.94;5105342;27;20114;-64
2022/09/21 02:20:31;;;;;;;4.80;4.03;;;;;;;10.96;100.00;100683.81;5071105;28;20112;-65
2022/09/21 02:23:05;;;;;;;9.23;4.20;;;;;;;11.01;100.00;100688.81;5105052;28;20683;-66
2022/09/21 02:26:12;;;;;;;4.40;3.35;;;;;;;11.00;100.00;100689.81;5105004;28;20023;-65
2022/09/21 02:28:46;;;;;;;5.00;3.53;;;;;;;10.99;100.00;100688.94;5039151;28;20571;-64
2022/09/21 02:31:21;;;;;;;3.95;3.55;;;;;;;11.00;100.00;100681.75;5096747;28;20035;-65
2022/09/21 02:34:03;;;;;;;4.68;4.10;;;;;;;10.98;100.00;100691.75;5104043;28;20074;-63
2022/09/21 02:36:47;;;;;;;5.22;4.18;;;;;;;10.98;100.00;100699.81;5103595;28;20030;-65
2022/09/21 02:39:16;;;;;;;4.57;4.10;;;;;;;11.00;100.00;100697.84;5101795;28;20038;-65
2022/09/21 02:41:53;;;;;;;5.03;3.70;;;;;;;10.99;100.00;100697.00;5103185;28;20102;-65
2022/09/21 02:44:32;;;;;;;5.22;3.70;;;;;;;11.04;100.00;100705.53;5103140;28;20367;-64
2022/09/21 02:47:05;;;;;;;5.68;3.90;;;;;;;11.01;100.00;100699.53;5102550;28;20541;-64
2022/09/21 02:49:36;;;;;;;4.40;3.70;;;;;;;11.02;100.00;100702.09;5106493;27;20470;-64
2022/09/21 02:52:08;;;;;;;3.88;3.30;;;;;;;11.00;100.00;100711.28;5103182;28;20031;-64
2022/09/21 02:54:36;;;;;;;4.72;3.40;;;;;;;10.96;100.00;100699.94;5103497;28;20425;-64
2022/09/21 02:57:01;;;;;;;5.28;3.55;;;;;;;10.94;100.00;100709.09;5102656;28;20203;-64
2022/09/21 02:59:27;;;;;;;5.05;4.07;;;;;;;10.90;100.00;100696.91;5102955;27;20024;-65
2022/09/21 03:01:54;;;;;;;5.57;4.15;;;;;;;10.96;100.00;100709.78;5101612;28;20059;-64
2022/09/21 03:04:21;;;;;;;6.45;3.55;;;;;;;10.96;100.00;100715.16;5100320;28;20027;-63
2022/09/21 03:06:46;;;;;;;7.15;4.30;;;;;;;10.96;100.00;100702.59;5103029;28;20042;-64
2022/09/21 03:09:12;;;;;;;5.10;3.88;;;;;;;10.99;100.00;100704.19;5103157;28;20020;-63
2022/09/21 03:11:38;;;;;;;4.90;4.18;;;;;;;10.97;100.00;100700.78;5104154;27;20084;-64
2022/09/21 03:14:07;;;;;;;5.15;3.63;;;;;;;10.99;100.00;100707.72;5103098;28;20032;-65
2022/09/21 03:16:37;;;;;;;4.28;3.53;;;;;;;11.00;100.00;100712.09;5101711;28;20105;-64
2022/09/21 03:19:03;;;;;;;3.90;3.50;;;;;;;10.97;100.00;100709.66;5100455;28;20932;-65
2022/09/21 03:21:29;;;;;;;5.35;3.97;;;;;;;11.01;100.00;100721.00;5103387;28;20020;-67
2022/09/21 03:23:54;;;;;;;4.10;3.58;;;;;;;10.98;100.00;100723.97;5102684;28;20042;-67
2022/09/21 03:26:21;;;;;;;5.10;3.38;;;;;;;11.01;100.00;100731.75;5100968;28;20039;-67
2022/09/21 03:28:48;;;;;;;5.35;4.30;;;;;;;10.99;100.00;100731.03;5102808;28;20510;-66
2022/09/21 03:31:13;;;;;;;5.13;3.70;;;;;;;10.96;100.00;100734.81;5102645;28;20024;-66
2022/09/21 03:33:38;;;;;;;4.80;3.65;;;;;;;10.90;100.00;100731.81;5101918;28;20129;-66
2022/09/21 03:36:04;;;;;;;4.95;4.00;;;;;;;10.95;100.00;100737.63;5103885;27;20036;-66
2022/09/21 03:38:30;;;;;;;5.03;4.38;;;;;;;10.93;100.00;100747.66;5102015;28;20039;-66
2022/09/21 03:40:56;;;;;;;4.25;3.65;;;;;;;10.91;100.00;100749.59;5103093;28;20464;-67
2022/09/21 03:43:22;;;;;;;5.10;4.10;;;;;;;10.88;100.00;100748.03;5101701;28;20031;-67
2022/09/21 03:45:48;;;;;;;5.10;4.00;;;;;;;10.86;100.00;100746.44;5103441;28;20031;-66
2022/09/21 03:48:14;;;;;;;6.20;3.78;;;;;;;10.84;100.00;100754.59;5104009;27;20020;-66
2022/09/21 03:50:40;;;;;;;6.07;4.53;;;;;;;10.84;100.00;100757.28;5103621;28;20022;-66
2022/09/21 03:53:06;;;;;;;4.15;3.60;;;;;;;10.87;100.00;100761.56;5105384;27;20027;-66
2022/09/21 03:55:32;;;;;;;5.88;3.78;;;;;;;10.86;100.00;100759.84;5102043;28;20666;-66
2022/09/21 03:57:57;;;;;;;6.25;3.95;;;;;;;10.91;100.00;100757.66;5103378;28;20506;-65
2022/09/21 04:00:23;;;;;;;7.32;4.68;;;;;;;10.86;100.00;100749.13;5101289;28;20035;-66
2022/09/21 04:02:48;;;;;;;4.68;3.60;;;;;;;10.88;100.00;100752.53;5103183;28;20078;-67
2022/09/21 04:05:15;;;;;;;4.68;3.90;;;;;;;10.96;100.00;100758.09;5102426;28;20096;-67
2022/09/21 04:07:42;;;;;;;7.35;4.15;;;;;;;10.99;100.00;100766.78;5103691;28;20114;-67
2022/09/21 04:10:11;;;;;;;4.97;3.97;;;;;;;10.93;100.00;100761.91;5103122;28;20027;-66
2022/09/21 04:12:38;;;;;;;6.03;4.25;;;;;;;10.97;100.00;100774.09;5106772;28;20022;-66
2022/09/21 04:15:06;;;;;;;4.13;3.65;;;;;;;10.94;100.00;100771.66;5110472;27;20035;-66
2022/09/21 04:17:32;;;;;;;5.78;4.35;;;;;;;10.94;100.00;100771.66;5111354;27;20055;-66
2022/09/21 04:19:58;;;;;;;4.13;3.72;;;;;;;10.92;100.00;100787.03;5111234;27;20664;-67
2022/09/21 04:22:24;;;;;;;4.68;3.75;;;;;;;10.81;100.00;100773.63;5109383;27;20032;-65
2022/09/21 04:24:49;;;;;;;4.43;3.90;;;;;;;10.91;100.00;100792.53;5109461;27;20028;-67
2022/09/21 04:27:15;;;;;;;5.43;4.05;;;;;;;10.88;100.00;100787.41;5112491;27;20038;-67
2022/09/21 04:29:41;;;;;;;7.97;3.92;;;;;;;10.84;100.00;100786.81;5111007;27;20023;-65
2022/09/21 04:32:06;;;;;;;5.13;4.03;;;;;;;10.84;100.00;100797.53;5110343;27;20389;-64
2022/09/21 04:34:32;;;;;;;5.35;4.43;;;;;;;10.78;100.00;100786.47;5110216;27;20458;-64
2022/09/21 04:36:58;;;;;;;6.82;4.00;;;;;;;10.85;100.00;100795.72;5109078;27;20046;-64
2022/09/21 04:39:25;;;;;;;3.83;3.30;;;;;;;10.83;100.00;100795.84;5111670;27;20088;-64
2022/09/21 04:41:50;;;;;;;4.15;3.67;;;;;;;10.83;100.00;100803.03;5108657;28;20024;-63
2022/09/21 04:44:19;;;;;;;6.50;4.00;;;;;;;10.84;100.00;100802.91;5109899;27;20040;-65
2022/09/21 04:46:44;;;;;;;6.97;4.03;;;;;;;10.86;100.00;100803.63;5110582;27;20526;-66
2022/09/21 04:49:10;;;;;;;6.57;3.90;;;;;;;10.85;100.00;100803.75;5113966;27;20054;-66
2022/09/21 04:51:35;;;;;;;5.53;4.13;;;;;;;10.84;100.00;100805.59;5110213;28;20026;-66
2022/09/21 04:54:01;;;;;;;5.63;3.67;;;;;;;10.86;100.00;100800.97;5110289;27;20028;-67
2022/09/21 04:56:27;;;;;;;4.80;3.78;;;;;;;10.85;100.00;100803.75;5109855;27;20042;-66
2022/09/21 04:58:52;;;;;;;7.70;4.10;;;;;;;10.77;100.00;100793.66;5109900;27;20036;-66
2022/09/21 05:01:18;;;;;;;6.13;4.40;;;;;;;10.80;100.00;100801.44;5109857;28;20076;-66
2022/09/21 05:03:43;;;;;;;5.43;4.03;;;;;;;10.81;100.00;100808.50;5110149;27;20019;-66
2022/09/21 05:06:12;;;;;;;5.93;4.13;;;;;;;10.79;100.00;100804.25;5109423;27;20043;-66
2022/09/21 05:11:22;;;;;;;5.70;3.47;;;;;;;10.85;100.00;100809.13;5109430;28;20081;-67
2022/09/21 05:13:47;;;;;;;6.63;3.92;;;;;;;10.86;100.00;100813.50;5108364;28;20032;-66
2022/09/21 05:16:14;;;;;;;8.55;3.67;;;;;;;10.90;100.00;100813.13;5109367;27;20046;-67
2022/09/21 05:18:40;;;;;;;4.70;3.65;;;;;;;10.86;100.00;100813.50;5110583;27;20114;-67
2022/09/21 05:21:06;;;;;;;6.32;3.88;;;;;;;10.86;100.00;100813.50;5109647;28;20110;-66
2022/09/21 05:23:32;;;;;;;7.38;4.57;;;;;;;10.77;100.00;100798.19;5107650;27;20022;-66
2022/09/21 05:25:58;;;;;;;7.10;4.35;;;;;;;10.81;100.00;100805.81;5104758;28;20027;-65
2022/09/21 05:28:25;;;;;;;10.38;5.63;;;;;;;10.83;100.00;100801.22;5108561;27;20099;-64
2022/09/21 05:31:01;;;;;;;10.88;6.03;;;;;;;10.88;100.00;100811.56;5106829;28;20585;-65
2022/09/21 05:33:29;;;;;;;7.68;5.18;;;;;;;10.94;100.00;100822.63;5102882;28;20039;-65
2022/09/21 05:36:10;;;;;;;8.45;5.70;;;;;;;11.04;100.00;100829.00;5103780;28;20035;-65
2022/09/21 05:38:35;;;;;;;8.68;5.97;;;;;;;11.08;100.00;100827.75;5104687;28;20123;-66
2022/09/21 05:41:01;;;;;;;7.20;5.43;;;;;;;11.16;100.00;100824.44;5106942;27;20106;-65
2022/09/21 05:43:27;;;;;;;7.43;5.40;;;;;;;11.19;100.00;100825.03;5107092;27;20027;-65
2022/09/21 05:46:09;;;;;;;6.53;5.10;;;;;;;11.29;100.00;100834.03;5105198;28;20078;-65
2022/09/21 05:48:57;;;;;;;7.10;4.80;;;;;;;11.33;100.00;100846.25;5105700;27;20093;-65
2022/09/21 05:51:32;;;;;;;6.53;4.65;;;;;;;11.40;100.00;100846.59;5104895;28;20480;-65
2022/09/21 05:54:25;;;;;;;5.40;4.25;;;;;;;11.41;100.00;100848.28;5106310;28;20550;-66
2022/09/21 05:56:56;;;;;;;7.30;3.97;;;;;;;11.49;99.64;100849.34;5108518;27;20031;-65
2022/09/21 05:59:27;;;;;;;5.97;4.10;;;;;;;11.54;99.22;100843.59;5105782;28;20842;-64
2022/09/21 06:01:53;;;;;;;7.93;4.03;;;;;;;11.65;98.51;100845.41;5104866;28;20039;-66
2022/09/21 06:04:18;;;;;;;4.75;3.65;;;;;;;11.70;97.31;100838.66;5105385;28;20031;-65
2022/09/21 06:06:44;;;;;;;5.40;3.55;;;;;;;11.81;96.37;100852.06;5104574;28;20031;-65
2022/09/21 06:09:09;;;;;;;7.32;3.85;;;;;;;11.92;94.78;100843.06;5105121;27;20387;-65
2022/09/21 06:11:35;;;;;;;4.55;4.00;;;;;;;11.86;93.92;100814.91;5100970;28;20030;-65
2022/09/21 06:14:03;;;;;;;6.60;4.10;;;;;;;12.04;93.61;100837.53;5101913;28;20046;-65
2022/09/21 06:16:39;;;;;;;5.97;4.18;;;;;;;12.21;91.57;100833.38;5103988;28;20051;-65
2022/09/21 06:19:04;;;;;;;5.07;4.00;;;;;;;12.21;91.13;100838.75;5104472;28;20795;-65
2022/09/21 06:21:30;;;;;;;4.57;3.50;;;;;;;12.27;89.53;100844.47;5108284;27;20474;-65
2022/09/21 06:23:55;;;;;;;6.30;4.07;;;;;;;12.36;88.61;100848.19;5104924;28;20027;-65
2022/09/21 06:26:21;;;;;;;4.72;3.80;;;;;;;12.34;89.62;100845.63;5103155;28;20024;-65
2022/09/21 06:28:46;;;;;;;7.88;4.25;;;;;;;12.47;87.84;100848.09;5111578;27;20027;-64
2022/09/21 06:31:12;;;;;;;5.05;3.88;;;;;;;12.37;88.47;100847.19;5105178;27;20027;-65
2022/09/21 06:33:37;;;;;;;7.18;4.35;;;;;;;12.37;89.72;100852.56;5106477;27;20027;-65
2022/09/21 06:36:03;;;;;;;6.45;3.63;;;;;;;12.38;89.61;100847.06;5103415;28;20485;-65
2022/09/21 06:38:28;;;;;;;4.30;3.38;;;;;;;12.46;88.91;100849.09;5104435;28;20070;-66
2022/09/21 06:40:55;;;;;;;5.65;3.97;;;;;;;12.54;87.53;100860.06;5105454;27;20031;-65
2022/09/21 06:43:20;;;;;;;4.55;3.75;;;;;;;12.54;87.90;100835.84;5104384;28;20154;-65
2022/09/21 06:45:57;;;;;;;5.22;3.97;;;;;;;12.71;87.80;100854.88;5102833;27;20453;-64
2022/09/21 06:48:23;;;;;;;6.30;3.50;;;;;;;12.85;88.44;100853.66;5103310;28;20032;-64
2022/09/21 06:50:49;;;;;;;5.15;4.40;;;;;;;12.99;88.12;100864.94;5102720;28;20147;-65
2022/09/21 06:53:15;;;;;;;6.18;4.70;;;;;;;13.08;85.84;100856.06;5103830;27;20039;-65
2022/09/21 06:55:40;;;;;;;5.20;3.60;;;;;;;13.11;84.25;100854.91;5105043;28;20024;-65
2022/09/21 06:58:06;;;;;;;6.15;4.10;;;;;;;13.23;82.85;100860.03;5104201;28;20106;-65
2022/09/21 07:00:32;;;;;;;5.88;3.70;;;;;;;13.31;83.64;100854.81;5104923;28;20027;-65
2022/09/21 07:02:58;;;;;;;8.73;4.50;;;;;;;13.56;80.91;100845.34;5103036;28;20039;-65
2022/09/21 07:05:23;;;;;;;7.13;3.90;;;;;;;13.95;78.25;100863.22;5104279;28;20034;-65
2022/09/21 07:07:49;;;;;;;5.03;3.60;;;;;;;14.32;75.42;100853.41;5104877;27;20028;-65
2022/09/21 07:10:15;;;;;;;6.20;3.45;;;;;;;14.40;77.28;100864.34;5104497;28;20028;-65
2022/09/21 07:12:40;;;;;;;5.68;3.50;;;;;;;14.70;71.96;100853.28;5104072;27;20042;-65
2022/09/21 07:15:07;;;;;;;4.07;3.15;;;;;;;14.99;70.88;100864.81;5102418;28;20507;-65
2022/09/21 07:17:46;;;;;;;4.07;3.15;;;;;;;15.13;70.84;100850.81;5104614;27;20070;-65
2022/09/21 07:20:17;;;;;;;3.38;2.53;;;;;;;15.31;67.02;100832.78;5098131;28;20034;-65
2022/09/21 07:22:43;;;;;;;4.93;2.63;;;;;;;15.52;68.21;100851.47;5104202;28;20039;-63
2022/09/21 07:25:09;;;;;;;3.67;2.90;;;;;;;15.81;66.27;100862.91;5104087;28;20038;-64
2022/09/21 07:27:34;;;;;;;4.53;3.30;;;;;;;16.11;64.85;100857.09;5104241;27;20534;-64
2022/09/21 07:30:00;;;;;;;4.57;2.70;;;;;;;16.25;65.38;100853.78;5103844;27;20034;-64
2022/09/21 07:32:26;;;;;;;5.13;3.50;;;;;;;16.74;62.59;100864.00;5104143;27;20057;-64
2022/09/21 07:34:55;;;;;;;7.35;3.55;;;;;;;16.97;62.71;100859.72;5105519;27;20034;-64
2022/09/21 07:37:22;;;;;;;4.47;3.80;;;;;;;17.25;61.62;100841.34;5099913;28;20395;-65
2022/09/21 07:39:48;;;;;;;6.18;3.30;;;;;;;17.65;61.29;100855.03;5103816;28;20100;-65
2022/09/21 07:42:13;;;;;;;5.10;3.35;;;;;;;17.84;58.81;100849.31;5103990;28;20035;-63
2022/09/21 07:44:39;;;;;;;4.63;3.13;;;;;;;17.94;56.91;100855.41;5102380;28;20046;-66
2022/09/21 07:47:05;;;;;;;5.57;3.20;;;;;;;17.91;56.14;100858.47;5103386;28;20031;-66
2022/09/21 07:49:30;;;;;;;4.53;3.05;;;;;;;18.02;56.03;100863.53;5102528;28;20437;-67
2022/09/21 07:51:56;;;;;;;4.43;3.17;;;;;;;18.41;55.31;100848.28;5101838;28;20280;-66
2022/09/21 07:54:21;;;;;;;6.53;2.85;;;;;;;19.28;51.83;100864.56;5102992;28;20042;-66
2022/09/21 07:59:31;;;;;;;7.72;3.28;;;;;;;21.09;47.46;100851.66;5102288;28;20051;-67
2022/09/21 08:01:58;;;;;;;4.90;3.42;;;;;;;21.89;45.93;100854.09;5104325;28;20039;-67
2022/09/21 08:04:23;;;;;;;4.50;3.28;;;;;;;22.75;44.26;100853.84;5101238;28;20034;-64
2022/09/21 08:06:49;;;;;;;4.40;2.78;;;;;;;23.97;41.50;100831.84;5104422;28;20391;-64
2022/09/21 08:09:15;;;;;;;5.82;2.67;;;;;;;25.66;38.48;100844.47;5103794;28;20020;-64
2022/09/21 08:11:43;;;;;;;5.57;3.28;;;;;;;26.28;37.29;100828.81;5104306;28;20039;-64
2022/09/21 08:14:09;;;;;;;4.22;2.60;;;;;;;26.32;36.82;100826.50;5104010;28;20434;-65
2022/09/21 08:16:36;;;;;;;3.75;2.80;;;;;;;26.28;36.82;100841.75;5102283;28;20047;-65
2022/09/21 08:19:03;;;;;;;4.32;2.50;;;;;;;25.81;37.52;100851.34;5104568;28;20043;-65
2022/09/21 08:21:29;;;;;;;3.53;3.00;;;;;;;25.26;38.35;100846.53;5104003;28;20035;-64
2022/09/21 08:23:54;;;;;;;4.25;2.55;;;;;;;24.60;39.23;100855.91;5104126;28;20028;-64
2022/09/21 08:26:21;;;;;;;2.72;2.40;;;;;;;23.92;40.34;100854.38;5103615;28;20028;-64
2022/09/21 08:28:50;;;;;;;5.43;2.92;;;;;;;24.04;39.27;100840.94;5104233;28;20031;-65
2022/09/21 08:31:20;;;;;;;3.85;2.70;;;;;;;23.16;41.09;100851.97;5103570;28;20375;-65
2022/09/21 08:33:47;;;;;;;3.35;2.40;;;;;;;22.81;42.40;100860.38;5104220;28;20472;-64
2022/09/21 08:36:13;;;;;;;3.80;3.15;;;;;;;22.05;43.67;100858.47;5103407;28;20076;-64
2022/09/21 08:38:38;;;;;;;3.10;2.80;;;;;;;21.87;43.89;100847.16;5103289;28;20483;-67
2022/09/21 08:41:13;;;;;;;3.40;3.10;;;;;;;21.32;45.33;100860.56;5102842;28;20032;-67
2022/09/21 08:43:51;;;;;;;4.50;2.90;;;;;;;21.14;45.35;100858.22;5102872;28;20114;-67
2022/09/21 08:46:20;;;;;;;3.42;3.13;;;;;;;20.72;46.12;100873.50;5103127;28;20023;-66
2022/09/21 08:48:58;;;;;;;5.50;2.80;;;;;;;20.46;47.07;100865.75;5103444;28;20043;-66
2022/09/21 08:51:28;;;;;;;3.50;2.80;;;;;;;20.22;48.10;100866.00;5102763;28;20024;-66
2022/09/21 08:54:03;;;;;;;2.90;2.70;;;;;;;20.11;47.93;100869.09;5101257;28;20092;-66
2022/09/21 08:56:29;;;;;;;3.50;2.83;;;;;;;19.93;48.42;100868.56;5102281;28;20028;-67
2022/09/21 08:58:55;;;;;;;3.55;2.50;;;;;;;19.94;47.40;100867.53;5104310;28;20066;-67
2022/09/21 09:01:53;;;;;;;3.17;2.83;;;;;;;19.79;48.40;100872.91;5104847;28;20106;-67
2022/09/21 09:04:33;;;;;;;3.22;2.42;;;;;;;19.84;47.74;100870.53;5105582;28;20039;-66
2022/09/21 09:07:23;;;;;;;2.50;2.30;;;;;;;19.53;48.83;100872.41;5107946;28;20080;-66
2022/09/21 09:10:10;;;;;;;4.57;2.67;;;;;;;19.53;48.85;100872.41;5107711;28;20543;-67
2022/09/21 09:13:06;;;;;;;3.08;2.30;;;;;;;19.37;49.74;100868.91;5107469;28;20063;-67
2022/09/21 09:15:44;;;;;;;3.67;2.42;;;;;;;19.41;47.80;100867.56;5106749;28;20040;-67
2022/09/21 09:18:28;;;;;;;4.68;2.17;;;;;;;19.15;48.77;100869.69;5106247;28;20066;-67
2022/09/21 09:21:02;;;;;;;4.03;2.90;;;;;;;19.09;49.06;100865.78;5107492;28;20043;-66
2022/09/21 09:23:33;;;;;;;2.33;2.13;;;;;;;19.37;47.63;100860.75;5105183;28;20035;-66
2022/09/21 09:26:10;;;;;;;3.38;1.77;;;;;;;19.18;47.69;100859.28;5105805;28;20030;-67
2022/09/21 09:29:10;;;;;;;2.60;1.92;;;;;;;19.06;48.22;100868.84;5107419;28;20062;-67
2022/09/21 09:31:37;;;;;;;1.92;1.52;;;;;;;19.01;46.90;100873.97;5098660;28;20036;-67
2022/09/21 09:34:21;;;;;;;3.28;1.40;;;;;;;18.89;47.53;100871.81;5105963;28;20119;-67
2022/09/21 09:36:55;;;;;;;5.45;2.10;;;;;;;18.85;46.23;100865.00;5107783;28;20088;-67
2022/09/21 09:39:20;;;;;;;3.13;2.50;;;;;;;18.68;47.29;100849.78;5107019;28;20463;-67
2022/09/21 09:41:54;;;;;;;2.35;1.88;;;;;;;18.61;47.33;100855.06;5106359;28;20080;-67
2022/09/21 09:44:37;;;;;;;1.63;1.52;;;;;;;18.61;45.84;100860.50;5105756;27;20015;-67
2022/09/21 09:47:31;;;;;;;2.23;1.97;;;;;;;18.69;45.67;100863.19;5103936;28;20042;-66
2022/09/21 09:50:03;;;;;;;4.10;1.98;;;;;;;18.68;45.99;100856.06;5106000;28;20031;-67
2022/09/21 09:52:31;;;;;;;2.28;1.80;;;;;;;18.59;47.00;100862.53;5105551;28;20084;-67
2022/09/21 09:54:58;;;;;;;3.08;2.00;;;;;;;18.58;46.76;100847.25;5106501;28;20024;-66
2022/09/21 09:57:32;;;;;;;1.80;1.52;;;;;;;18.57;47.78;100850.16;5106168;28;20084;-67
2022/09/21 10:00:07;;;;;;;2.15;2.00;;;;;;;18.52;46.81;100850.66;5106840;28;20055;-67
2022/09/21 10:02:48;;;;;;;3.53;1.38;;;;;;;18.54;46.78;100848.59;5106330;28;20037;-67
2022/09/21 10:05:37;;;;;;;2.30;1.63;;;;;;;18.55;46.85;100844.88;5105732;28;20063;-66
2022/09/21 10:08:02;;;;;;;2.42;1.90;;;;;;;18.96;43.94;100849.16;5105249;28;20046;-67
2022/09/21 10:10:28;;;;;;;1.70;1.58;;;;;;;18.95;44.61;100833.03;5104253;28;20094;-67
2022/09/21 10:13:13;;;;;;;2.10;1.70;;;;;;;19.00;44.51;100836.94;5105831;28;20066;-68
2022/09/21 10:16:10;;;;;;;1.55;1.42;;;;;;;19.07;44.16;100839.78;5105559;28;20031;-68
2022/09/21 10:18:57;;;;;;;2.38;1.75;;;;;;;19.13;44.51;100837.22;5102699;28;20969;-68
2022/09/21 10:21:26;;;;;;;2.53;1.88;;;;;;;19.04;45.05;100840.13;5104702;28;20530;-67
2022/09/21 10:23:58;;;;;;;2.10;1.33;;;;;;;19.06;44.98;100828.03;5105494;28;20012;-67
2022/09/21 10:26:29;;;;;;;1.98;1.77;;;;;;;19.18;45.04;100833.94;5103342;28;20031;-67
2022/09/21 10:29:00;;;;;;;1.98;1.55;;;;;;;19.20;44.40;100830.03;5105281;28;20024;-67
2022/09/21 10:31:30;;;;;;;1.60;1.50;;;;;;;19.25;44.21;100827.63;5104494;28;20432;-67
2022/09/21 10:34:01;;;;;;;3.25;1.70;;;;;;;19.34;43.62;100832.03;5105266;28;20076;-68
2022/09/21 10:36:36;;;;;;;1.70;1.60;;;;;;;19.49;41.97;100818.50;5104500;28;20035;-67
2022/09/21 10:39:28;;;;;;;2.75;1.95;;;;;;;19.26;42.99;100833.94;5105122;28;20031;-67
2022/09/21 10:42:04;;;;;;;1.98;1.75;;;;;;;19.24;43.11;100825.06;5105168;28;20443;-67
2022/09/21 10:44:42;;;;;;;1.88;1.70;;;;;;;19.11;43.31;100833.81;5104083;28;20023;-68
2022/09/21 10:47:22;;;;;;;2.72;1.80;;;;;;;19.02;44.20;100821.28;5104718;28;20024;-68
2022/09/21 10:49:57;;;;;;;2.28;1.65;;;;;;;18.94;45.00;100826.75;5102151;28;20491;-67
2022/09/21 10:52:41;;;;;;;2.85;1.58;;;;;;;19.04;44.07;100815.66;5104635;28;20031;-67
2022/09/21 10:55:15;;;;;;;;;;;;;;;19.23;43.16;100826.13;5104907;28;20022;-68
2022/09/21 10:57:42;;;;;;;2.28;1.60;;;;;;;19.19;44.24;100814.72;5104416;28;19955;-67
2022/09/21 11:00:22;;;;;;;2.03;1.55;;;;;;;19.13;44.67;100818.19;5104167;28;20113;-67
2022/09/21 11:02:49;;;;;;;1.30;1.20;;;;;;;18.99;45.24;100818.91;5104317;28;20023;-68
2022/09/21 11:05:37;;;;;;;2.50;1.73;;;;;;;18.99;45.51;100826.25;5103534;28;20022;-68
2022/09/21 11:08:17;;;;;;;3.00;1.70;;;;;;;18.97;45.89;100814.69;5104490;28;20607;-67
2022/09/21 11:10:59;;;;;;;2.65;1.42;;;;;;;19.20;44.02;100819.16;5104098;28;20653;-67
2022/09/21 11:13:32;;;;;;;2.03;1.60;;;;;;;19.11;44.20;100805.75;5104047;28;20454;-67
2022/09/21 11:16:14;;;;;;;1.67;1.58;;;;;;;19.05;45.62;100812.78;5102003;28;20115;-67
2022/09/21 11:18:45;;;;;;;3.95;1.67;;;;;;;19.21;45.24;100809.97;5103868;28;20059;-67
2022/09/21 11:21:29;;;;;;;3.03;1.40;;;;;;;19.05;45.89;100801.88;5103365;28;20528;-66
2022/09/21 11:24:23;;;;;;;2.00;1.60;;;;;;;19.08;45.77;100797.97;5104230;28;20050;-68
2022/09/21 11:27:18;;;;;;;1.55;1.35;;;;;;;18.92;46.35;100795.31;5079784;28;20043;-67
2022/09/21 11:29:52;;;;;;;2.33;1.45;;;;;;;18.91;46.44;100799.06;5092810;28;20521;-67
2022/09/21 11:32:51;;;;;;;4.53;1.65;;;;;;;18.97;45.99;100804.66;5103031;28;20035;-67
2022/09/21 11:35:29;;;;;;;1.98;1.77;;;;;;;18.85;46.82;100797.91;5101651;28;20122;-66
2022/09/21 11:38:08;;;;;;;2.53;1.90;;;;;;;18.84;47.22;100801.66;5100718;28;20042;-66
2022/09/21 11:40:56;;;;;;;3.42;1.80;;;;;;;18.91;47.30;100790.91;5101893;28;20020;-67
2022/09/21 11:43:28;;;;;;;2.25;1.75;;;;;;;18.84;47.89;100790.78;5103391;28;20551;-66
2022/09/21 11:46:13;;;;;;;2.17;1.50;;;;;;;19.09;46.01;100791.53;5104180;28;20024;-66